Terminal Aerodrome Forecast
Issued by NWS

Home | Current Version | Previous Version | Text Only | Print | Product List | Glossary Off
Versions: 1 2 3 4 5 6 7 8 9 10 11 12 13 14 15 16 17

966
FTUS43 KMPX 212119 AAA
TAFAXN
TAF AMD
KAXN 212119Z 2121/2218 32015G20KT P6SM SKC
     FM220000 32012KT P6SM SKC
     FM220800 27004KT P6SM FEW250
     FM221400 19010KT P6SM BKN250=

USA.gov is the U.S. government's official web portal to all federal, state and local government web resources and services.